Terminal Aerodrome Forecast
Issued by NWS

Home | Current Version | Previous Version | Text Only | Print | Product List | Glossary On
Versions: 1 2 3 4 5 6 7 8 9 10 11 12 13 14
000
FTUS45 KTWC 270520
TAFOLS
TAF
KOLS 270520Z 2706/2806 06008KT P6SM SCT110 BKN150
     FM271900 10011KT P6SM VCTS BKN060CB BKN130
     FM272300 15009KT P6SM VCSH SCT070 BKN140
     FM280300 VRB06KT P6SM SCT070 BKN150=

USA.gov is the U.S. government's official web portal to all federal, state and local government web resources and services.